Time;durP1;ratioP1;P1;durP2;ratioP2;P2;SDS_P1;SDS_P2;PMS_P1;PMS_P2;Temp;Humidity;BMP_temperature;BMP_pressure;BME280_temperature;BME280_humidity;BME280_pressure;Samples;Min_cycle;Max_cycle;Signal;HPM_P1;HPM_P2
2022/11/15 00:02:22;;;;;;;138.25;52.08;;;;;;;;;;5003106;28;20042;-77
2022/11/15 00:04:48;;;;;;;142.93;51.85;;;;;;;;;;4997037;28;20117;-76
2022/11/15 00:07:16;;;;;;;151.15;52.08;;;;;;;;;;4999971;28;20038;-76
2022/11/15 00:09:42;;;;;;;131.98;50.10;;;;;;;;;;5001926;28;20088;-76
2022/11/15 00:12:08;;;;;;;139.40;52.72;;;;;;;;;;5003293;28;20076;-76
2022/11/15 00:14:34;;;;;;;138.60;52.38;;;;;;;;;;5001691;28;20464;-76
2022/11/15 00:17:00;;;;;;;138.93;50.90;;;;;;;;;;5005690;28;20034;-76
2022/11/15 00:19:26;;;;;;;139.35;51.33;;;;;;;;;;4999961;28;20129;-77
2022/11/15 00:21:52;;;;;;;145.30;50.83;;;;;;;;;;5005854;28;20033;-76
2022/11/15 00:24:18;;;;;;;133.77;50.03;;;;;;;;;;5006223;28;20030;-76
2022/11/15 00:26:44;;;;;;;135.55;49.63;;;;;;;;;;5013086;28;20030;-77
2022/11/15 00:29:10;;;;;;;139.57;50.90;;;;;;;;;;5013974;28;20056;-76
2022/11/15 00:31:36;;;;;;;152.85;50.28;;;;;;;;;;4992681;28;20061;-77
2022/11/15 00:34:02;;;;;;;170.70;51.67;;;;;;;;;;5011979;28;20081;-76
2022/11/15 00:36:28;;;;;;;171.10;53.28;;;;;;;;;;5011815;28;20034;-76
2022/11/15 00:38:54;;;;;;;170.38;50.75;;;;;;;;;;5017543;28;20029;-77
2022/11/15 00:41:20;;;;;;;179.75;53.45;;;;;;;;;;5027357;28;20057;-77
2022/11/15 00:43:46;;;;;;;193.25;53.60;;;;;;;;;;5027001;28;20050;-77
2022/11/15 00:46:12;;;;;;;210.23;55.67;;;;;;;;;;5024675;28;20147;-77
2022/11/15 00:48:38;;;;;;;203.00;56.72;;;;;;;;;;5012571;28;20067;-78
2022/11/15 00:51:04;;;;;;;212.27;56.65;;;;;;;;;;5015431;28;20034;-76
2022/11/15 00:53:30;;;;;;;235.90;57.85;;;;;;;;;;5023928;28;20125;-76
2022/11/15 00:55:56;;;;;;;232.85;58.90;;;;;;;;;;5012160;28;20034;-76
2022/11/15 00:58:22;;;;;;;220.80;57.03;;;;;;;;;;5000401;28;20034;-76
2022/11/15 01:00:48;;;;;;;229.15;60.83;;;;;;;;;;5021727;28;20037;-76
2022/11/15 01:03:14;;;;;;;223.23;59.72;;;;;;;;;;4998027;28;20399;-77
2022/11/15 01:05:41;;;;;;;239.70;59.60;;;;;;;;;;4995039;28;20077;-78
2022/11/15 01:08:07;;;;;;;204.52;59.35;;;;;;;;;;4996164;28;20026;-76
2022/11/15 01:10:34;;;;;;;241.35;62.97;;;;;;;;;;5001335;28;20052;-76
2022/11/15 01:13:00;;;;;;;229.82;59.15;;;;;;;;;;4999662;28;20112;-76
2022/11/15 01:15:26;;;;;;;236.18;61.65;;;;;;;;;;5002898;28;20129;-76
2022/11/15 01:17:52;;;;;;;234.05;60.97;;;;;;;;;;5006111;28;20041;-76
2022/11/15 01:20:18;;;;;;;239.07;59.70;;;;;;;;;;4998089;28;20030;-77
2022/11/15 01:22:44;;;;;;;225.02;60.30;;;;;;;;;;5003415;28;20029;-76
2022/11/15 01:25:10;;;;;;;279.00;63.60;;;;;;;;;;5007158;28;20470;-78
2022/11/15 01:27:36;;;;;;;251.50;63.75;;;;;;;;;;5003065;28;20084;-77
2022/11/15 01:30:03;;;;;;;230.95;62.33;;;;;;;;;;5001552;28;20034;-76
2022/11/15 01:32:29;;;;;;;257.92;62.35;;;;;;;;;;4997944;28;20136;-78
2022/11/15 01:34:55;;;;;;;239.02;62.42;;;;;;;;;;4992884;28;20377;-77
2022/11/15 01:37:21;;;;;;;270.73;64.68;;;;;;;;;;5004255;28;20146;-77
2022/11/15 01:39:47;;;;;;;279.52;64.68;;;;;;;;;;5001319;28;20038;-76
2022/11/15 01:42:14;;;;;;;264.23;63.78;;;;;;;;;;5006332;28;20025;-77
2022/11/15 01:44:50;;;;;;;261.27;64.00;;;;;;;;;;5007023;28;20054;-77
2022/11/15 01:47:18;;;;;;;237.55;65.15;;;;;;;;;;5012394;28;20042;-76
2022/11/15 01:49:50;;;;;;;266.80;66.22;;;;;;;;;;5014296;28;20085;-77
2022/11/15 01:52:19;;;;;;;266.13;66.38;;;;;;;;;;5022057;28;20026;-76
2022/11/15 01:54:46;;;;;;;252.13;63.95;;;;;;;;;;5017608;28;20021;-76
2022/11/15 01:57:12;;;;;;;250.32;65.88;;;;;;;;;;5018730;28;20113;-76
2022/11/15 01:59:39;;;;;;;247.70;65.85;;;;;;;;;;5012083;28;20030;-76
2022/11/15 02:02:06;;;;;;;245.45;67.80;;;;;;;;;;5010573;28;20129;-77
2022/11/15 02:04:35;;;;;;;239.50;67.28;;;;;;;;;;5010682;28;20080;-76
2022/11/15 02:07:03;;;;;;;233.70;65.68;;;;;;;;;;5006514;28;20116;-77
2022/11/15 02:09:30;;;;;;;247.02;69.63;;;;;;;;;;5003359;28;20553;-76
2022/11/15 02:11:56;;;;;;;224.63;64.05;;;;;;;;;;5001508;28;20057;-76
2022/11/15 02:14:23;;;;;;;229.85;68.80;;;;;;;;;;4994456;28;20030;-76
2022/11/15 02:16:49;;;;;;;235.57;69.38;;;;;;;;;;5005761;28;20095;-76
2022/11/15 02:19:28;;;;;;;246.27;68.10;;;;;;;;;;5001973;28;20030;-76
2022/11/15 02:22:05;;;;;;;245.68;69.55;;;;;;;;;;4993085;28;20090;-76
2022/11/15 02:24:42;;;;;;;271.65;74.10;;;;;;;;;;5001941;28;20054;-77
2022/11/15 02:27:21;;;;;;;261.00;74.60;;;;;;;;;;5000118;28;20030;-77
2022/11/15 02:30:00;;;;;;;238.70;68.93;;;;;;;;;;5006593;28;20434;-77
2022/11/15 02:32:26;;;;;;;235.40;70.50;;;;;;;;;;5001198;28;20041;-85
2022/11/15 02:34:58;;;;;;;260.42;70.00;;;;;;;;;;5002001;28;20549;-76
2022/11/15 02:37:24;;;;;;;248.88;70.70;;;;;;;;;;5017942;28;20085;-77
2022/11/15 02:39:52;;;;;;;250.48;72.20;;;;;;;;;;5004555;28;20061;-77
2022/11/15 02:45:08;;;;;;;244.60;70.70;;;;;;;;;;4997732;28;20071;-77
2022/11/15 02:47:37;;;;;;;264.95;72.93;;;;;;;;;;4996615;28;20038;-77
2022/11/15 02:50:12;;;;;;;255.32;72.93;;;;;;;;;;4993441;28;20041;-77
2022/11/15 02:52:38;;;;;;;269.63;77.28;;;;;;;;;;5004045;28;20018;-77
2022/11/15 02:55:04;;;;;;;267.35;77.55;;;;;;;;;;5006183;28;20061;-77
2022/11/15 02:57:39;;;;;;;284.40;74.90;;;;;;;;;;5005536;28;20038;-77
2022/11/15 03:00:07;;;;;;;260.48;77.43;;;;;;;;;;5012023;28;20086;-77
2022/11/15 03:02:52;;;;;;;287.23;79.43;;;;;;;;;;5016148;28;20038;-77
2022/11/15 03:05:24;;;;;;;278.17;77.65;;;;;;;;;;5029915;28;20034;-77
2022/11/15 03:07:59;;;;;;;268.48;77.70;;;;;;;;;;5017326;28;20097;-77
2022/11/15 03:10:25;;;;;;;268.63;79.95;;;;;;;;;;5013952;28;20050;-84
2022/11/15 03:13:00;;;;;;;278.70;79.88;;;;;;;;;;5006792;28;20053;-76
2022/11/15 03:15:37;;;;;;;281.98;80.97;;;;;;;;;;5014716;28;20030;-76
2022/11/15 03:18:26;;;;;;;277.38;80.13;;;;;;;;;;5009726;28;20499;-77
2022/11/15 03:20:53;;;;;;;279.75;82.97;;;;;;;;;;4996314;28;20041;-77
2022/11/15 03:23:19;;;;;;;264.77;82.07;;;;;;;;;;5003472;28;20022;-76
2022/11/15 03:25:48;;;;;;;272.25;81.45;;;;;;;;;;5002186;28;20715;-77
2022/11/15 03:28:17;;;;;;;292.25;85.55;;;;;;;;;;5001989;28;20461;-77
2022/11/15 03:30:44;;;;;;;263.88;81.60;;;;;;;;;;5009413;28;20034;-76
2022/11/15 03:33:11;;;;;;;280.55;84.00;;;;;;;;;;5000083;28;20033;-77
2022/11/15 03:35:43;;;;;;;277.92;83.72;;;;;;;;;;5003680;28;20030;-77
2022/11/15 03:38:21;;;;;;;276.25;82.90;;;;;;;;;;5007058;28;20081;-76
2022/11/15 03:41:13;;;;;;;256.00;81.40;;;;;;;;;;4998698;28;20045;-76
2022/11/15 03:44:08;;;;;;;249.25;78.80;;;;;;;;;;4983726;28;20058;-77
2022/11/15 03:46:40;;;;;;;246.77;79.10;;;;;;;;;;4988702;28;20174;-77
2022/11/15 03:49:11;;;;;;;247.25;79.10;;;;;;;;;;4993959;28;20034;-77
2022/11/15 03:51:37;;;;;;;230.70;78.78;;;;;;;;;;5001674;28;20022;-77
2022/11/15 03:54:04;;;;;;;215.90;76.70;;;;;;;;;;5001927;28;20021;-77
2022/11/15 03:56:30;;;;;;;213.38;79.50;;;;;;;;;;5007272;28;20045;-77
2022/11/15 03:58:56;;;;;;;221.85;75.47;;;;;;;;;;4999079;28;20161;-77
2022/11/15 04:01:22;;;;;;;207.32;74.25;;;;;;;;;;4999203;28;20029;-77
2022/11/15 04:03:48;;;;;;;195.25;70.95;;;;;;;;;;4999401;28;20494;-78
2022/11/15 04:06:14;;;;;;;189.10;73.00;;;;;;;;;;5008155;28;20066;-77
2022/11/15 04:08:40;;;;;;;181.30;69.63;;;;;;;;;;5026870;28;20030;-77
2022/11/15 04:11:06;;;;;;;167.32;66.55;;;;;;;;;;5016266;28;20037;-77
2022/11/15 04:13:32;;;;;;;171.80;67.93;;;;;;;;;;5009918;28;20014;-77
2022/11/15 04:15:58;;;;;;;156.68;64.72;;;;;;;;;;5021531;28;20085;-78
2022/11/15 04:18:24;;;;;;;161.27;64.03;;;;;;;;;;5036393;28;20034;-77
2022/11/15 04:26:21;;;;;;;161.65;64.90;;;;;;;;;;5022492;28;20087;-77
2022/11/15 04:31:32;;;;;;;152.70;63.30;;;;;;;;;;5009202;28;20040;-78
2022/11/15 04:33:58;;;;;;;157.98;62.88;;;;;;;;;;5010707;28;20037;-77
2022/11/15 04:39:09;;;;;;;155.23;65.28;;;;;;;;;;4996680;28;20089;-77
2022/11/15 04:41:35;;;;;;;151.50;63.13;;;;;;;;;;5004187;28;20030;-77
2022/11/15 04:44:01;;;;;;;144.57;62.67;;;;;;;;;;5013772;28;20049;-77
2022/11/15 04:46:27;;;;;;;146.27;61.33;;;;;;;;;;5010483;28;20103;-77
2022/11/15 04:48:54;;;;;;;143.65;59.17;;;;;;;;;;5003798;28;20037;-77
2022/11/15 04:51:20;;;;;;;147.50;60.10;;;;;;;;;;5000691;28;20034;-77
2022/11/15 04:53:46;;;;;;;151.55;61.38;;;;;;;;;;4995929;28;20034;-77
2022/11/15 04:56:12;;;;;;;143.65;60.25;;;;;;;;;;4993725;28;20041;-76
2022/11/15 04:58:38;;;;;;;139.48;58.42;;;;;;;;;;4995577;28;20030;-77
2022/11/15 05:01:11;;;;;;;154.27;59.85;;;;;;;;;;5003975;28;20414;-77
2022/11/15 05:06:22;;;;;;;146.75;58.58;;;;;;;;;;4995418;28;20144;-76
2022/11/15 05:08:48;;;;;;;150.90;59.70;;;;;;;;;;5001580;28;20156;-77
2022/11/15 05:11:14;;;;;;;149.10;61.38;;;;;;;;;;5005489;28;20041;-77
2022/11/15 05:13:40;;;;;;;176.45;62.30;;;;;;;;;;5009631;28;20018;-77
2022/11/15 05:16:07;;;;;;;159.20;63.38;;;;;;;;;;5018278;28;20034;-77
2022/11/15 05:18:33;;;;;;;156.77;61.22;;;;;;;;;;5014054;28;20103;-78
2022/11/15 05:21:06;;;;;;;150.98;61.30;;;;;;;;;;5029039;28;20042;-78
2022/11/15 05:23:32;;;;;;;149.52;62.40;;;;;;;;;;5021131;28;20018;-77
2022/11/15 05:26:04;;;;;;;152.93;59.95;;;;;;;;;;5010702;28;20019;-77
2022/11/15 05:28:30;;;;;;;137.68;59.53;;;;;;;;;;5018057;28;20030;-88
2022/11/15 05:31:03;;;;;;;157.25;61.28;;;;;;;;;;5026268;28;20034;-77
2022/11/15 05:33:29;;;;;;;144.32;58.60;;;;;;;;;;5010995;28;20022;-80
2022/11/15 05:35:59;;;;;;;139.77;56.28;;;;;;;;;;5013766;28;20034;-77
2022/11/15 05:38:25;;;;;;;150.63;58.60;;;;;;;;;;5011842;28;20042;-77
2022/11/15 05:40:51;;;;;;;130.32;58.47;;;;;;;;;;5010048;28;20089;-77
2022/11/15 05:43:17;;;;;;;123.63;56.25;;;;;;;;;;5002227;28;20051;-77
2022/11/15 05:45:43;;;;;;;126.38;55.72;;;;;;;;;;5008990;28;20037;-77
2022/11/15 05:48:09;;;;;;;126.35;55.13;;;;;;;;;;5003861;28;20499;-77
2022/11/15 05:50:36;;;;;;;114.50;54.45;;;;;;;;;;5001336;28;20026;-78
2022/11/15 05:53:03;;;;;;;118.45;54.47;;;;;;;;;;4992429;28;20042;-77
2022/11/15 05:55:29;;;;;;;118.72;54.67;;;;;;;;;;5001038;28;20125;-80
2022/11/15 05:57:55;;;;;;;118.00;54.72;;;;;;;;;;4999133;28;20112;-78
2022/11/15 06:00:21;;;;;;;113.43;51.00;;;;;;;;;;5007488;28;20466;-77
2022/11/15 06:02:47;;;;;;;108.10;52.53;;;;;;;;;;4998686;28;21292;-77
2022/11/15 06:05:13;;;;;;;106.22;51.67;;;;;;;;;;5000665;28;20415;-78
2022/11/15 06:07:39;;;;;;;105.22;51.20;;;;;;;;;;5002647;28;20037;-78
2022/11/15 06:10:06;;;;;;;105.45;51.22;;;;;;;;;;4998139;28;20085;-78
2022/11/15 06:12:32;;;;;;;114.18;52.42;;;;;;;;;;5009980;28;20479;-78
2022/11/15 06:14:58;;;;;;;104.32;52.28;;;;;;;;;;4991463;28;20134;-79
2022/11/15 06:17:43;;;;;;;104.18;51.05;;;;;;;;;;4996462;28;20045;-86
2022/11/15 06:20:09;;;;;;;110.88;50.35;;;;;;;;;;5004997;28;20030;-79
2022/11/15 06:22:38;;;;;;;102.60;47.80;;;;;;;;;;4998154;28;20026;-80
2022/11/15 06:25:04;;;;;;;91.88;48.45;;;;;;;;;;5007436;28;20033;-75
2022/11/15 06:27:30;;;;;;;102.65;49.75;;;;;;;;;;4989123;28;20475;-76
2022/11/15 06:29:56;;;;;;;99.70;47.17;;;;;;;;;;5001157;28;20097;-76
2022/11/15 06:32:22;;;;;;;94.60;48.55;;;;;;;;;;5006046;28;20061;-77
2022/11/15 06:34:48;;;;;;;100.93;48.92;;;;;;;;;;5002503;28;20038;-77
2022/11/15 06:37:14;;;;;;;92.88;47.13;;;;;;;;;;4993498;28;20038;-76
2022/11/15 06:39:40;;;;;;;90.35;46.65;;;;;;;;;;5015000;28;20069;-77
2022/11/15 06:42:08;;;;;;;97.50;46.90;;;;;;;;;;5013254;28;20491;-76
2022/11/15 06:44:34;;;;;;;93.57;45.28;;;;;;;;;;5009810;28;20081;-78
2022/11/15 06:47:00;;;;;;;93.30;46.08;;;;;;;;;;5009333;28;20122;-76
2022/11/15 06:49:26;;;;;;;93.10;46.65;;;;;;;;;;5013612;28;20091;-77
2022/11/15 06:51:52;;;;;;;84.07;45.08;;;;;;;;;;5018877;28;20028;-77
2022/11/15 06:54:18;;;;;;;83.50;45.65;;;;;;;;;;5015107;28;20101;-76
2022/11/15 06:56:44;;;;;;;87.47;45.78;;;;;;;;;;4983242;28;20045;-78
2022/11/15 06:59:10;;;;;;;82.72;43.42;;;;;;;;;;5013363;28;20514;-81
2022/11/15 07:01:36;;;;;;;79.20;43.85;;;;;;;;;;5007972;28;20030;-77
2022/11/15 07:04:02;;;;;;;88.20;41.80;;;;;;;;;;5007235;28;20026;-78
2022/11/15 07:06:29;;;;;;;76.47;42.10;;;;;;;;;;4989889;28;20084;-77
2022/11/15 07:08:55;;;;;;;81.82;42.03;;;;;;;;;;5002563;28;20026;-78
2022/11/15 07:11:21;;;;;;;79.47;41.03;;;;;;;;;;5002347;28;20036;-78
2022/11/15 07:13:47;;;;;;;75.35;42.05;;;;;;;;;;4987319;28;20048;-78
2022/11/15 07:16:13;;;;;;;75.10;40.42;;;;;;;;;;5010195;28;20025;-77
2022/11/15 07:18:40;;;;;;;69.82;40.85;;;;;;;;;;5014416;28;20030;-76
2022/11/15 07:21:07;;;;;;;82.45;40.75;;;;;;;;;;5002815;28;20048;-75
2022/11/15 07:23:33;;;;;;;79.53;41.03;;;;;;;;;;5009211;28;20573;-76
2022/11/15 07:25:59;;;;;;;66.25;37.95;;;;;;;;;;5002071;28;20048;-76
2022/11/15 07:28:26;;;;;;;76.68;38.58;;;;;;;;;;5007697;28;20030;-77
2022/11/15 07:30:52;;;;;;;81.95;40.30;;;;;;;;;;5005706;28;20457;-77
2022/11/15 07:33:19;;;;;;;75.45;38.70;;;;;;;;;;5009666;28;20045;-75
2022/11/15 07:35:48;;;;;;;76.32;38.22;;;;;;;;;;5003156;28;20045;-77
2022/11/15 07:38:14;;;;;;;69.32;36.65;;;;;;;;;;5004642;28;20081;-77
2022/11/15 07:40:40;;;;;;;71.28;37.25;;;;;;;;;;5002387;28;20061;-76
2022/11/15 07:43:07;;;;;;;62.53;36.22;;;;;;;;;;5009658;28;20034;-76
2022/11/15 07:45:34;;;;;;;67.60;36.47;;;;;;;;;;5009696;28;20054;-79
2022/11/15 07:48:00;;;;;;;64.88;36.70;;;;;;;;;;5007989;28;20034;-76
2022/11/15 07:50:27;;;;;;;73.00;36.90;;;;;;;;;;5010413;28;20113;-77
2022/11/15 07:52:57;;;;;;;69.53;36.08;;;;;;;;;;5006586;28;20041;-77
2022/11/15 07:55:24;;;;;;;66.47;35.95;;;;;;;;;;5006110;28;20038;-77
2022/11/15 07:57:50;;;;;;;68.95;37.63;;;;;;;;;;5006611;28;20099;-77
2022/11/15 08:00:16;;;;;;;71.53;36.47;;;;;;;;;;4985945;28;20122;-78
2022/11/15 08:02:42;;;;;;;68.38;35.28;;;;;;;;;;5002435;28;20392;-78
2022/11/15 08:05:08;;;;;;;64.85;35.75;;;;;;;;;;5004611;28;20042;-78
2022/11/15 08:07:35;;;;;;;61.25;32.90;;;;;;;;;;5003008;28;20105;-77
2022/11/15 08:10:01;;;;;;;64.32;33.58;;;;;;;;;;5005245;28;20033;-77
2022/11/15 08:12:31;;;;;;;60.70;33.10;;;;;;;;;;5007426;28;20025;-77
2022/11/15 08:14:57;;;;;;;58.55;32.40;;;;;;;;;;5000076;28;20423;-77
2022/11/15 08:17:24;;;;;;;52.88;30.98;;;;;;;;;;5004449;28;20072;-78
2022/11/15 08:19:50;;;;;;;55.63;30.05;;;;;;;;;;5007133;28;20042;-79
2022/11/15 08:22:16;;;;;;;48.65;28.67;;;;;;;;;;5007442;28;20037;-78
2022/11/15 08:24:42;;;;;;;50.67;28.98;;;;;;;;;;5001103;28;20072;-78
2022/11/15 08:27:14;;;;;;;44.65;27.23;;;;;;;;;;5007005;28;20030;-77
2022/11/15 08:29:41;;;;;;;56.60;27.52;;;;;;;;;;5007765;28;20121;-84
2022/11/15 08:32:07;;;;;;;44.28;26.65;;;;;;;;;;5009634;28;20033;-77
2022/11/15 08:34:33;;;;;;;41.72;25.48;;;;;;;;;;5015802;28;20025;-77
2022/11/15 08:37:00;;;;;;;44.45;24.80;;;;;;;;;;5010591;28;20145;-77
2022/11/15 08:39:26;;;;;;;48.05;25.27;;;;;;;;;;4989049;28;20534;-75
2022/11/15 08:41:52;;;;;;;42.00;24.75;;;;;;;;;;5015493;28;20029;-77
2022/11/15 08:44:18;;;;;;;42.63;24.73;;;;;;;;;;5001345;28;20058;-77
2022/11/15 08:46:46;;;;;;;36.95;22.02;;;;;;;;;;5016569;28;20033;-78
2022/11/15 08:49:12;;;;;;;36.67;22.35;;;;;;;;;;5026049;28;20021;-77
2022/11/15 08:51:38;;;;;;;35.15;20.65;;;;;;;;;;5012455;28;20034;-82
2022/11/15 08:54:04;;;;;;;36.33;21.13;;;;;;;;;;5018788;28;20068;-75
2022/11/15 08:56:30;;;;;;;31.52;19.20;;;;;;;;;;5020040;28;20054;-77
2022/11/15 08:58:56;;;;;;;33.03;19.15;;;;;;;;;;5007083;28;20093;-76
2022/11/15 09:01:22;;;;;;;36.72;20.63;;;;;;;;;;5009821;28;20041;-74
2022/11/15 09:03:48;;;;;;;33.58;20.08;;;;;;;;;;5016019;28;20033;-76
2022/11/15 09:06:15;;;;;;;31.85;20.40;;;;;;;;;;5014156;28;20036;-79
2022/11/15 09:08:41;;;;;;;34.88;16.35;;;;;;;;;;5008585;28;20088;-76
2022/11/15 09:11:08;;;;;;;22.65;15.32;;;;;;;;;;5013273;28;20026;-76
2022/11/15 09:13:34;;;;;;;27.92;14.82;;;;;;;;;;5017221;28;20045;-76
2022/11/15 09:16:01;;;;;;;29.73;14.38;;;;;;;;;;5012429;28;20042;-75
2022/11/15 09:18:28;;;;;;;29.73;15.43;;;;;;;;;;5010976;28;20515;-76
2022/11/15 09:20:57;;;;;;;26.73;14.55;;;;;;;;;;5011875;28;20037;-76
2022/11/15 09:23:23;;;;;;;23.42;15.35;;;;;;;;;;5007220;28;20217;-75
2022/11/15 09:25:50;;;;;;;22.58;14.93;;;;;;;;;;5006521;28;20046;-76
2022/11/15 09:28:16;;;;;;;31.55;16.23;;;;;;;;;;5002930;28;20026;-76
2022/11/15 09:30:42;;;;;;;25.73;14.82;;;;;;;;;;5005968;28;20039;-77
2022/11/15 09:33:09;;;;;;;43.55;15.88;;;;;;;;;;5002279;28;20069;-76
2022/11/15 09:35:35;;;;;;;26.65;15.93;;;;;;;;;;5003745;28;20683;-75
2022/11/15 09:38:01;;;;;;;26.83;16.00;;;;;;;;;;5001591;28;20152;-76
2022/11/15 09:40:27;;;;;;;23.75;14.52;;;;;;;;;;4999561;28;20046;-76
2022/11/15 09:42:54;;;;;;;23.95;13.75;;;;;;;;;;4995188;28;20034;-76
2022/11/15 09:45:35;;;;;;;23.95;13.90;;;;;;;;;;5001469;28;20042;-75
2022/11/15 09:48:04;;;;;;;21.40;12.38;;;;;;;;;;4998295;28;20041;-76
2022/11/15 09:50:36;;;;;;;24.48;13.23;;;;;;;;;;4998455;28;20022;-77
2022/11/15 09:53:04;;;;;;;24.00;13.52;;;;;;;;;;4994581;28;20034;-77
2022/11/15 09:55:37;;;;;;;23.52;13.88;;;;;;;;;;5002224;28;20030;-81
2022/11/15 09:58:10;;;;;;;24.33;13.18;;;;;;;;;;5001613;28;20058;-75
2022/11/15 10:00:40;;;;;;;19.33;11.95;;;;;;;;;;5013428;28;20054;-76
2022/11/15 10:03:13;;;;;;;25.02;12.07;;;;;;;;;;5006268;28;20061;-77
2022/11/15 10:05:41;;;;;;;28.67;11.50;;;;;;;;;;5004800;28;20551;-76
2022/11/15 10:08:26;;;;;;;22.05;10.27;;;;;;;;;;5001863;28;20674;-76
2022/11/15 10:10:57;;;;;;;14.98;10.32;;;;;;;;;;5002280;28;20030;-76
2022/11/15 10:13:23;;;;;;;;;;;;;;;;;;4995216;28;20037;-75
2022/11/15 10:15:50;;;;;;;18.50;10.23;;;;;;;;;;5000860;28;19909;-76
2022/11/15 10:18:28;;;;;;;14.38;9.20;;;;;;;;;;4996104;28;20118;-77
2022/11/15 10:20:59;;;;;;;18.45;9.70;;;;;;;;;;4998635;28;20124;-76
2022/11/15 10:23:27;;;;;;;16.25;9.52;;;;;;;;;;5000030;28;20029;-75
2022/11/15 10:25:55;;;;;;;24.00;9.85;;;;;;;;;;5000720;28;20152;-75
2022/11/15 10:28:31;;;;;;;14.40;9.13;;;;;;;;;;5001518;28;20054;-75
2022/11/15 10:30:58;;;;;;;17.38;9.32;;;;;;;;;;5000107;28;20153;-76
2022/11/15 10:33:27;;;;;;;18.67;9.52;;;;;;;;;;4998042;28;20060;-76
2022/11/15 10:36:14;;;;;;;11.18;8.55;;;;;;;;;;4990203;28;20419;-75
2022/11/15 10:38:49;;;;;;;14.07;8.52;;;;;;;;;;5000943;28;20038;-80
2022/11/15 10:41:16;;;;;;;17.02;9.55;;;;;;;;;;4994135;28;20041;-76
2022/11/15 10:43:45;;;;;;;17.55;9.38;;;;;;;;;;4992647;28;20192;-76
2022/11/15 10:46:25;;;;;;;11.93;8.48;;;;;;;;;;4993085;28;20157;-76
2022/11/15 10:48:51;;;;;;;21.98;8.82;;;;;;;;;;4990814;28;20045;-75
2022/11/15 10:51:28;;;;;;;14.80;8.48;;;;;;;;;;4999355;28;20038;-75
2022/11/15 10:53:55;;;;;;;16.33;8.65;;;;;;;;;;4996649;28;20037;-75
2022/11/15 10:56:21;;;;;;;13.10;7.78;;;;;;;;;;4999593;28;20060;-75
2022/11/15 10:58:52;;;;;;;15.55;7.55;;;;;;;;;;5001736;28;20088;-75
2022/11/15 11:01:20;;;;;;;12.45;8.02;;;;;;;;;;4999811;28;20030;-75
2022/11/15 11:03:58;;;;;;;17.75;9.43;;;;;;;;;;4997551;28;20038;-76
2022/11/15 11:06:25;;;;;;;13.57;7.57;;;;;;;;;;5004300;28;20018;-75
2022/11/15 11:09:14;;;;;;;13.50;7.32;;;;;;;;;;5003731;28;20510;-77
2022/11/15 11:11:48;;;;;;;14.50;6.65;;;;;;;;;;4997167;28;20038;-76
2022/11/15 11:14:19;;;;;;;15.05;5.60;;;;;;;;;;5000780;28;20053;-75
2022/11/15 11:16:49;;;;;;;10.07;5.15;;;;;;;;;;5008816;28;20030;-75
2022/11/15 11:19:18;;;;;;;15.40;6.27;;;;;;;;;;5002903;28;20030;-75
2022/11/15 11:21:53;;;;;;;9.55;5.50;;;;;;;;;;4998467;28;20264;-75
2022/11/15 11:24:26;;;;;;;11.75;5.38;;;;;;;;;;5003219;28;20057;-75
2022/11/15 11:26:52;;;;;;;11.63;4.50;;;;;;;;;;5007137;28;20010;-75
2022/11/15 11:29:33;;;;;;;8.60;4.20;;;;;;;;;;5004324;28;20582;-76
2022/11/15 11:32:18;;;;;;;10.48;3.92;;;;;;;;;;5004525;28;20034;-74
2022/11/15 11:34:50;;;;;;;10.77;4.28;;;;;;;;;;5005288;28;20042;-76
2022/11/15 11:37:22;;;;;;;10.68;4.15;;;;;;;;;;4999069;28;20061;-76
2022/11/15 11:40:07;;;;;;;8.88;3.95;;;;;;;;;;4999983;28;20041;-76
2022/11/15 11:42:45;;;;;;;8.13;3.85;;;;;;;;;;4998510;28;20049;-75
2022/11/15 11:45:16;;;;;;;9.00;3.40;;;;;;;;;;5008006;28;20053;-76
2022/11/15 11:47:48;;;;;;;10.88;3.45;;;;;;;;;;5011040;28;20073;-76
2022/11/15 11:50:34;;;;;;;11.18;3.10;;;;;;;;;;5008920;28;20033;-76
2022/11/15 11:53:04;;;;;;;9.82;3.40;;;;;;;;;;5005073;28;20036;-77
2022/11/15 11:55:37;;;;;;;8.30;2.97;;;;;;;;;;5006666;28;20061;-76
2022/11/15 11:58:22;;;;;;;10.60;3.10;;;;;;;;;;5004260;28;20109;-75
2022/11/15 12:01:03;;;;;;;7.00;2.70;;;;;;;;;;5006270;28;20030;-75
2022/11/15 12:03:40;;;;;;;10.48;3.45;;;;;;;;;;5013739;28;20022;-77
2022/11/15 12:06:18;;;;;;;8.57;2.25;;;;;;;;;;5009942;28;20463;-76
2022/11/15 12:08:44;;;;;;;7.72;3.05;;;;;;;;;;5006372;28;20026;-74
2022/11/15 12:11:31;;;;;;;9.05;3.60;;;;;;;;;;5007373;28;20053;-77
2022/11/15 12:13:59;;;;;;;8.63;2.30;;;;;;;;;;5004631;28;20125;-75
2022/11/15 12:16:29;;;;;;;7.47;2.40;;;;;;;;;;5010954;28;20118;-76
2022/11/15 12:18:57;;;;;;;7.18;2.38;;;;;;;;;;5004558;28;20113;-77
2022/11/15 12:21:26;;;;;;;11.45;2.78;;;;;;;;;;5007153;28;20120;-78
2022/11/15 12:23:55;;;;;;;8.43;2.28;;;;;;;;;;5006546;28;20022;-75
2022/11/15 12:26:23;;;;;;;8.25;2.42;;;;;;;;;;5004120;28;20022;-76
2022/11/15 12:28:57;;;;;;;7.32;2.10;;;;;;;;;;5009469;28;20022;-77
2022/11/15 12:31:29;;;;;;;11.05;2.13;;;;;;;;;;5002057;28;20149;-77
2022/11/15 12:33:56;;;;;;;9.40;2.38;;;;;;;;;;4993561;28;20057;-75
2022/11/15 12:36:22;;;;;;;6.80;1.90;;;;;;;;;;5004688;28;20034;-76
2022/11/15 12:38:52;;;;;;;10.65;2.78;;;;;;;;;;4994622;28;20117;-78
2022/11/15 12:41:20;;;;;;;11.33;2.10;;;;;;;;;;5003620;28;20575;-76
2022/11/15 12:43:47;;;;;;;11.60;2.60;;;;;;;;;;4991921;28;20050;-76
2022/11/15 12:46:33;;;;;;;9.73;2.05;;;;;;;;;;4995150;28;20105;-76
2022/11/15 12:49:08;;;;;;;7.00;1.52;;;;;;;;;;4993302;28;20417;-77
2022/11/15 12:51:43;;;;;;;9.55;2.08;;;;;;;;;;5001291;28;20050;-76
2022/11/15 12:54:24;;;;;;;8.25;2.00;;;;;;;;;;5003444;28;20408;-77
2022/11/15 12:57:06;;;;;;;6.78;1.52;;;;;;;;;;5004458;28;20030;-76
2022/11/15 12:59:47;;;;;;;10.52;2.17;;;;;;;;;;5001945;28;20023;-77
2022/11/15 13:02:24;;;;;;;8.05;1.90;;;;;;;;;;4993239;28;20048;-76
2022/11/15 13:04:51;;;;;;;9.30;2.72;;;;;;;;;;4994000;28;20027;-76
2022/11/15 13:07:43;;;;;;;8.40;2.17;;;;;;;;;;4994693;28;20042;-76
2022/11/15 13:10:27;;;;;;;12.65;2.00;;;;;;;;;;4992596;28;20066;-76
2022/11/15 13:12:57;;;;;;;8.07;1.83;;;;;;;;;;4998114;28;20424;-76
2022/11/15 13:15:46;;;;;;;12.60;2.65;;;;;;;;;;5017118;28;20069;-77
2022/11/15 13:18:24;;;;;;;8.95;1.85;;;;;;;;;;5006102;28;20031;-77
2022/11/15 13:20:50;;;;;;;12.65;1.90;;;;;;;;;;5003660;28;20030;-76
2022/11/15 13:23:17;;;;;;;7.72;1.70;;;;;;;;;;5006101;28;20048;-77
2022/11/15 13:25:43;;;;;;;8.73;1.98;;;;;;;;;;5009132;28;20072;-77
2022/11/15 13:28:15;;;;;;;9.40;2.10;;;;;;;;;;5001656;28;20018;-77
2022/11/15 13:30:47;;;;;;;9.93;2.15;;;;;;;;;;5010522;28;20029;-76
2022/11/15 13:33:16;;;;;;;7.15;2.20;;;;;;;;;;5007366;28;20080;-77
2022/11/15 13:35:45;;;;;;;7.75;2.50;;;;;;;;;;5017921;28;20056;-77
2022/11/15 13:38:19;;;;;;;6.95;2.00;;;;;;;;;;4996841;28;20065;-76
2022/11/15 13:40:45;;;;;;;10.20;2.15;;;;;;;;;;5012042;28;20038;-76
2022/11/15 13:43:24;;;;;;;10.07;2.40;;;;;;;;;;4998765;28;20109;-76
2022/11/15 13:46:09;;;;;;;9.20;2.10;;;;;;;;;;5008874;28;20128;-76
2022/11/15 13:48:35;;;;;;;6.45;2.95;;;;;;;;;;5010951;28;20551;-76
2022/11/15 13:51:03;;;;;;;9.85;3.00;;;;;;;;;;5011041;28;20025;-77
2022/11/15 13:53:31;;;;;;;9.10;2.67;;;;;;;;;;5005929;28;20139;-77
2022/11/15 13:55:58;;;;;;;7.40;2.35;;;;;;;;;;4995396;28;20032;-76
2022/11/15 13:58:24;;;;;;;9.57;2.80;;;;;;;;;;5000898;28;20246;-77
2022/11/15 14:00:58;;;;;;;9.10;2.45;;;;;;;;;;5005040;28;20069;-77
2022/11/15 14:03:24;;;;;;;10.57;2.20;;;;;;;;;;5010876;28;20026;-79
2022/11/15 14:06:03;;;;;;;9.20;2.90;;;;;;;;;;5001208;28;20050;-77
2022/11/15 14:08:29;;;;;;;6.45;2.75;;;;;;;;;;4999172;28;20491;-84
2022/11/15 14:11:14;;;;;;;10.73;3.22;;;;;;;;;;5001784;28;20057;-77
2022/11/15 14:13:40;;;;;;;9.02;3.78;;;;;;;;;;5014570;28;20105;-75
2022/11/15 14:16:17;;;;;;;15.63;3.28;;;;;;;;;;4999360;28;20145;-76
2022/11/15 14:18:50;;;;;;;11.07;4.05;;;;;;;;;;5001544;28;20532;-76
2022/11/15 14:21:16;;;;;;;12.45;3.05;;;;;;;;;;5003145;28;20163;-77
2022/11/15 14:23:43;;;;;;;9.38;3.33;;;;;;;;;;5008191;28;20053;-77
2022/11/15 14:26:25;;;;;;;9.55;2.70;;;;;;;;;;5004435;28;20117;-76
2022/11/15 14:28:51;;;;;;;9.45;2.78;;;;;;;;;;5016281;28;20105;-78
2022/11/15 14:31:17;;;;;;;12.20;2.88;;;;;;;;;;5007084;28;20065;-78
2022/11/15 14:33:44;;;;;;;8.52;3.00;;;;;;;;;;5004454;28;20489;-77
2022/11/15 14:36:14;;;;;;;8.13;3.10;;;;;;;;;;4997190;28;20120;-77
2022/11/15 14:38:42;;;;;;;13.77;3.38;;;;;;;;;;5004046;28;20029;-78
2022/11/15 14:41:19;;;;;;;19.35;3.42;;;;;;;;;;5007529;28;20034;-78
2022/11/15 14:43:45;;;;;;;12.35;3.47;;;;;;;;;;5015522;28;20034;-78
2022/11/15 14:46:11;;;;;;;11.13;3.58;;;;;;;;;;5013719;28;20044;-77
2022/11/15 14:48:37;;;;;;;9.43;2.65;;;;;;;;;;5016545;28;20030;-77